AirNav   Air Wisconsin pilot careers
 
 905 users online  

NC30 Miller Air Park
Mooresville, North Carolina, USA

GOING TO MOORESVILLE?


FAA INFORMATION EFFECTIVE 08 NOVEMBER 2018

Location

FAA Identifier: NC30
Lat/Long: 35-36-50.4990N / 080-44-29.2530W
35-36.841650N / 080-44.487550W
35.6140275 / -80.7414592
(estimated)
Elevation: 864 ft. / 263.3 m (surveyed)
Variation: 05W (1985)
From city: 3 miles NE of MOORESVILLE, NC
Time zone: UTC -5 (UTC -4 during Daylight Saving Time)
Zip code: 28115

Airport Operations

Airport use: Private use. Permission required prior to landing
Activation date: 09/1949
Control tower: no
ARTCC: ATLANTA CENTER
FSS: RALEIGH FLIGHT SERVICE STATION
Attendance: UNATNDD
Wind indicator: yes
Segmented circle: no

Airport Communications

WX AWOS-3 at RUQ (11 nm E): 118.175 (704-637-6197)
WX AWOS-3 at JQF (14 nm S): 133.675 (704-785-2145)
WX AWOS-3 at SVH (14 nm NW): 119.225 (704-873-1978)

Nearby radio navigation aids

VOR radial/distance  VOR name  Freq  Var
CLTr027/27.4CHARLOTTE VOR/DME115.0005W
BZMr128/28.7BARRETTS MOUNTAIN VOR/DME110.8006W

 
NDB name  Hdg/Dist  Freq  Var  ID
ROVDY246/14.227506WRU .-. ..-
STONIA045/32.526006WGHJ --. .... .---

Airport Services

Parking: hangars

Runway Information

Runway 18/36

Dimensions: 2060 x 100 ft. / 628 x 30 m
Surface: turf, in fair condition
RUNWAY 18  RUNWAY 36
Gradient: 1.5%1.5%
Traffic pattern: leftleft
Markings: nonenone
Runway end identifier lights: nono
Obstructions: 50 ft. trees, 200 ft. from runway, 4:1 slope to clear30 ft. trees, 100 ft. left of centerline

Airport Ownership and Management from official FAA records

Ownership: Privately-owned
Owner: MILLER AIR PARK
120 AIRPARK DRIVE
MOORESVILLE, NC 28115-6966
Phone 704-664-2831
Manager: PERRY MILLER
325 AIRPARK DRIVE
MOORESVILLE, NC 28115
Phone 704-664-1587
ADDITIONAL CONTACT: HOWARD MILLER 2970 HOPE VALLEY RD WINSTON-SALEM, NC 27106 336-765-6851 HOMILLER727@TRIAD.RR.COM

Airport Operational Statistics

Aircraft based on the field: 20
Single engine airplanes: 20
    
Aircraft operations: avg 54/week *
71% local general aviation
29% transient general aviation
* for 12-month period ending 13 July 1989

Additional Remarks

VFR OPERATIONS ONLY.
FOR CD CTC CHARLOTTE APCH AT 704-359-0241.

Instrument Procedures

There are no published instrument procedures at NC30.

Some nearby airports with instrument procedures:

14A - Lake Norman Airpark (8 nm W)
KRUQ - Mid-Carolina Regional Airport (11 nm E)
KJQF - Concord Regional Airport (14 nm S)
KSVH - Statesville Regional Airport (14 nm NW)
KIPJ - Lincolnton-Lincoln County Regional Airport (22 nm W)
 
Loc | Ops | Rwys | IFR | FBO | Links
Com | Nav | Svcs | Stats | Notes


 
Area around NC30 (Miller Air Park)
 
Road maps at: MapQuest Bing Google
 
Aerial photo
WARNING: Photo may not be current or correct
Aerial photo of NC30 (Miller Air Park)
Photo by Bob Perkins
Photo taken 14-Sep-2012
looking north.

Do you have a better or more recent aerial photo of Miller Air Park that you would like to share? If so, please send us your photo.

 
Sectional chart

 
Airport distance calculator
Flying to Miller Air Park? Find the distance to fly.

From to NC30

Sunrise and sunset
Times for 18-Nov-2018
 Local
(UTC-5)
 Zulu
(UTC)
Morning civil twilight06:3511:35
Sunrise07:0312:03
Sunset17:1422:14
Evening civil twilight17:4122:41

Current date and time
Zulu (UTC)  18-Nov-2018 21:42:52
Local (UTC-5)  18-Nov-2018 16:42:52
 
METAR
KRUQ 
11nm E 
182100Z AUTO 14003KT 10SM CLR 15/05 A3021 RMK AO2 T01480047
KSVH 
13nm NW 
182100Z AUTO 16003KT 10SM CLR 14/06 A3021 RMK AO2 T01380056
KJQF 
14nm S 
182052Z 00000KT 10SM CLR 16/06 A3025
KIPJ 
22nm W 
182100Z AUTO 00000KT 10SM CLR 15/05 A3021 RMK AO2 T01510048
TAF
KCLT 
26nm SW 
181740Z 1818/1924 12003KT P6SM FEW050 SCT220 FM182000 16004KT P6SM BKN040 BKN200 FM190300 00000KT 6SM BR SCT015 BKN025 FM191300 VRB02KT P6SM SCT025 BKN200 FM191700 23004KT P6SM SCT030 SCT150
KHKY 
32nm W 
181740Z 1818/1918 19003KT P6SM FEW210 FM190600 00000KT 5SM BR BKN040 FM191200 22002KT P6SM BKN150
NOTAMs
Click for the latest NOTAMs
NOTAMs are issued by the DoD/FAA and will open in a separate window not controlled by AirNav.

 

 
 

Would you like to see your business listed on this page?

 If your business provides an interesting product or service to pilots, flight crews, aircraft, or users of the Miller Air Park, you should consider listing it here.  To start the listing process, click on the button below
 
Add a business
 

Other Pages about Miller Air Park

Update a link
 
Copyright © AirNav, LLC. All rights reserved. Privacy Policy  Contact